sensor_id;sensor_type;location;lat;lon;timestamp;pressure;altitude;pressure_sealevel;temperature;humidity
30021;BME280;16861;52.294;7.760;2023-04-08T00:00:17;100442.91;;;8.31;49.85
30021;BME280;16861;52.294;7.760;2023-04-08T00:02:43;100450.88;;;8.28;50.06
30021;BME280;16861;52.294;7.760;2023-04-08T00:05:10;100454.53;;;8.24;49.98
30021;BME280;16861;52.294;7.760;2023-04-08T00:07:36;100451.13;;;8.21;50.07
30021;BME280;16861;52.294;7.760;2023-04-08T00:10:06;100453.84;;;8.18;50.18
30021;BME280;16861;52.294;7.760;2023-04-08T00:12:33;100458.28;;;8.16;49.94
30021;BME280;16861;52.294;7.760;2023-04-08T00:14:59;100450.59;;;8.12;49.93
30021;BME280;16861;52.294;7.760;2023-04-08T00:17:26;100453.25;;;8.10;49.94
30021;BME280;16861;52.294;7.760;2023-04-08T00:19:52;100453.47;;;8.04;50.17
30021;BME280;16861;52.294;7.760;2023-04-08T00:22:20;100451.75;;;8.03;50.52
30021;BME280;16861;52.294;7.760;2023-04-08T00:24:47;100448.44;;;7.98;50.16
30021;BME280;16861;52.294;7.760;2023-04-08T00:27:13;100451.09;;;7.96;50.17
30021;BME280;16861;52.294;7.760;2023-04-08T00:29:40;100450.38;;;7.92;50.46
30021;BME280;16861;52.294;7.760;2023-04-08T00:32:07;100450.41;;;7.91;50.64
30021;BME280;16861;52.294;7.760;2023-04-08T00:34:33;100455.72;;;7.89;50.77
30021;BME280;16861;52.294;7.760;2023-04-08T00:37:00;100454.88;;;7.89;50.86
30021;BME280;16861;52.294;7.760;2023-04-08T00:39:27;100455.75;;;7.88;50.57
30021;BME280;16861;52.294;7.760;2023-04-08T00:41:53;100456.72;;;7.85;51.20
30021;BME280;16861;52.294;7.760;2023-04-08T00:44:19;100448.06;;;7.83;51.07
30021;BME280;16861;52.294;7.760;2023-04-08T00:46:46;100449.03;;;7.80;50.88
30021;BME280;16861;52.294;7.760;2023-04-08T00:49:13;100445.63;;;7.77;51.21
30021;BME280;16861;52.294;7.760;2023-04-08T00:51:40;100452.72;;;7.75;51.19
30021;BME280;16861;52.294;7.760;2023-04-08T00:54:07;100447.56;;;7.72;51.41
30021;BME280;16861;52.294;7.760;2023-04-08T00:56:34;100444.16;;;7.69;51.11
30021;BME280;16861;52.294;7.760;2023-04-08T00:59:01;100447.69;;;7.68;51.61
30021;BME280;16861;52.294;7.760;2023-04-08T01:05:01;100452.13;;;7.66;52.10
30021;BME280;16861;52.294;7.760;2023-04-08T01:07:34;100455.59;;;7.67;51.77
30021;BME280;16861;52.294;7.760;2023-04-08T01:10:06;100457.31;;;7.68;51.83
30021;BME280;16861;52.294;7.760;2023-04-08T01:12:36;100452.94;;;7.68;51.65
30021;BME280;16861;52.294;7.760;2023-04-08T01:15:07;100453.69;;;7.72;51.52
30021;BME280;16861;52.294;7.760;2023-04-08T01:17:34;100458.97;;;7.71;51.78
30021;BME280;16861;52.294;7.760;2023-04-08T01:20:03;100458.19;;;7.68;51.86
30021;BME280;16861;52.294;7.760;2023-04-08T01:22:43;100467.84;;;7.66;52.19
30021;BME280;16861;52.294;7.760;2023-04-08T01:25:19;100463.41;;;7.68;52.28
30021;BME280;16861;52.294;7.760;2023-04-08T01:27:48;100463.41;;;7.68;51.99
30021;BME280;16861;52.294;7.760;2023-04-08T01:30:17;100458.97;;;7.71;52.00
30021;BME280;16861;52.294;7.760;2023-04-08T01:32:44;100465.03;;;7.73;52.01
30021;BME280;16861;52.294;7.760;2023-04-08T01:35:14;100459.78;;;7.73;52.13
30021;BME280;16861;52.294;7.760;2023-04-08T01:37:41;100466.69;;;7.75;52.15
30021;BME280;16861;52.294;7.760;2023-04-08T01:40:10;100471.06;;;7.75;52.07
30021;BME280;16861;52.294;7.760;2023-04-08T01:42:37;100474.47;;;7.77;52.26
30021;BME280;16861;52.294;7.760;2023-04-08T01:45:05;100477.09;;;7.77;52.25
30021;BME280;16861;52.294;7.760;2023-04-08T01:47:33;100470.16;;;7.76;52.13
30021;BME280;16861;52.294;7.760;2023-04-08T01:50:00;100473.69;;;7.75;52.55
30021;BME280;16861;52.294;7.760;2023-04-08T01:52:27;100469.22;;;7.77;52.54
30021;BME280;16861;52.294;7.760;2023-04-08T01:54:54;100479.72;;;7.77;52.71
30021;BME280;16861;52.294;7.760;2023-04-08T01:57:23;100466.59;;;7.77;52.77
30021;BME280;16861;52.294;7.760;2023-04-08T01:59:51;100471.81;;;7.78;53.08
30021;BME280;16861;52.294;7.760;2023-04-08T02:02:19;100475.25;;;7.80;53.15
30021;BME280;16861;52.294;7.760;2023-04-08T02:04:48;100469.91;;;7.84;53.34
30021;BME280;16861;52.294;7.760;2023-04-08T02:07:15;100468.06;;;7.86;53.31
30021;BME280;16861;52.294;7.760;2023-04-08T02:09:42;100473.22;;;7.89;52.99
30021;BME280;16861;52.294;7.760;2023-04-08T02:12:08;100469.69;;;7.90;52.95
30021;BME280;16861;52.294;7.760;2023-04-08T02:14:35;100469.63;;;7.91;53.38
30021;BME280;16861;52.294;7.760;2023-04-08T02:17:13;100474.88;;;7.91;53.69
30021;BME280;16861;52.294;7.760;2023-04-08T02:22:37;100467.75;;;7.95;54.11
30021;BME280;16861;52.294;7.760;2023-04-08T02:25:09;100477.19;;;8.01;53.86
30021;BME280;16861;52.294;7.760;2023-04-08T02:27:38;100481.41;;;8.05;53.78
30021;BME280;16861;52.294;7.760;2023-04-08T02:30:07;100474.34;;;8.07;53.63
30021;BME280;16861;52.294;7.760;2023-04-08T02:32:35;100477.66;;;8.12;53.57
30021;BME280;16861;52.294;7.760;2023-04-08T02:35:04;100476.75;;;8.13;54.04
30021;BME280;16861;52.294;7.760;2023-04-08T02:37:31;100483.59;;;8.17;53.96
30021;BME280;16861;52.294;7.760;2023-04-08T02:39:57;100484.34;;;8.21;53.61
30021;BME280;16861;52.294;7.760;2023-04-08T02:42:24;100487.78;;;8.23;53.53
30021;BME280;16861;52.294;7.760;2023-04-08T02:44:51;100497.31;;;8.26;53.74
30021;BME280;16861;52.294;7.760;2023-04-08T02:47:17;100496.38;;;8.27;54.02
30021;BME280;16861;52.294;7.760;2023-04-08T02:49:44;100493.66;;;8.30;53.87
30021;BME280;16861;52.294;7.760;2023-04-08T02:52:10;100488.28;;;8.33;53.64
30021;BME280;16861;52.294;7.760;2023-04-08T02:54:37;100499.59;;;8.35;53.70
30021;BME280;16861;52.294;7.760;2023-04-08T02:57:03;100496.97;;;8.35;53.81
30021;BME280;16861;52.294;7.760;2023-04-08T02:59:30;100500.38;;;8.37;53.78
30021;BME280;16861;52.294;7.760;2023-04-08T03:01:57;100503.88;;;8.38;53.73
30021;BME280;16861;52.294;7.760;2023-04-08T03:04:23;100505.53;;;8.40;54.00
30021;BME280;16861;52.294;7.760;2023-04-08T03:06:50;100502.91;;;8.40;54.14
30021;BME280;16861;52.294;7.760;2023-04-08T03:09:19;100501.94;;;8.43;53.97
30021;BME280;16861;52.294;7.760;2023-04-08T03:11:46;100511.47;;;8.45;54.01
30021;BME280;16861;52.294;7.760;2023-04-08T03:14:20;100514.84;;;8.49;54.44
30021;BME280;16861;52.294;7.760;2023-04-08T03:16:47;100505.19;;;8.50;54.60
30021;BME280;16861;52.294;7.760;2023-04-08T03:19:13;100503.44;;;8.50;54.20
30021;BME280;16861;52.294;7.760;2023-04-08T03:21:40;100502.53;;;8.51;54.61
30021;BME280;16861;52.294;7.760;2023-04-08T03:24:07;100505.13;;;8.53;54.68
30021;BME280;16861;52.294;7.760;2023-04-08T03:26:33;100500.75;;;8.53;54.84
30021;BME280;16861;52.294;7.760;2023-04-08T03:29:00;100505.03;;;8.56;54.57
30021;BME280;16861;52.294;7.760;2023-04-08T03:31:27;100516.31;;;8.58;55.04
30021;BME280;16861;52.294;7.760;2023-04-08T03:33:56;100511.78;;;8.62;54.85
30021;BME280;16861;52.294;7.760;2023-04-08T03:36:22;100502.16;;;8.62;55.06
30021;BME280;16861;52.294;7.760;2023-04-08T03:38:49;100507.34;;;8.64;54.65
30021;BME280;16861;52.294;7.760;2023-04-08T03:41:16;100505.59;;;8.64;54.75
30021;BME280;16861;52.294;7.760;2023-04-08T03:43:42;100505.50;;;8.66;54.88
30021;BME280;16861;52.294;7.760;2023-04-08T03:46:09;100509.00;;;8.66;55.04
30021;BME280;16861;52.294;7.760;2023-04-08T03:48:36;100513.34;;;8.67;55.17
30021;BME280;16861;52.294;7.760;2023-04-08T03:51:02;100502.84;;;8.67;55.16
30021;BME280;16861;52.294;7.760;2023-04-08T03:53:29;100504.53;;;8.68;55.08
30021;BME280;16861;52.294;7.760;2023-04-08T03:55:56;100511.53;;;8.69;54.89
30021;BME280;16861;52.294;7.760;2023-04-08T03:58:22;100504.50;;;8.70;55.18
30021;BME280;16861;52.294;7.760;2023-04-08T04:00:49;100500.09;;;8.70;54.89
30021;BME280;16861;52.294;7.760;2023-04-08T04:03:15;100507.97;;;8.70;55.15
30021;BME280;16861;52.294;7.760;2023-04-08T04:08:10;100507.13;;;8.70;55.24
30021;BME280;16861;52.294;7.760;2023-04-08T04:10:37;100513.34;;;8.67;55.51
30021;BME280;16861;52.294;7.760;2023-04-08T04:13:03;100504.63;;;8.67;55.36
30021;BME280;16861;52.294;7.760;2023-04-08T04:15:30;100509.00;;;8.66;55.46
30021;BME280;16861;52.294;7.760;2023-04-08T04:17:56;100508.22;;;8.64;55.50
30021;BME280;16861;52.294;7.760;2023-04-08T04:20:23;100507.34;;;8.64;55.47
30021;BME280;16861;52.294;7.760;2023-04-08T04:22:51;100514.34;;;8.63;55.74
30021;BME280;16861;52.294;7.760;2023-04-08T04:25:17;100511.78;;;8.62;55.77
30021;BME280;16861;52.294;7.760;2023-04-08T04:27:44;100515.34;;;8.60;55.94
30021;BME280;16861;52.294;7.760;2023-04-08T04:30:10;100520.59;;;8.60;55.73
30021;BME280;16861;52.294;7.760;2023-04-08T04:32:42;100524.06;;;8.61;56.09
30021;BME280;16861;52.294;7.760;2023-04-08T04:35:09;100524.06;;;8.61;56.20
30021;BME280;16861;52.294;7.760;2023-04-08T04:37:36;100529.38;;;8.59;55.76
30021;BME280;16861;52.294;7.760;2023-04-08T04:40:03;100535.53;;;8.58;56.15
30021;BME280;16861;52.294;7.760;2023-04-08T04:42:31;100532.09;;;8.56;56.07
30021;BME280;16861;52.294;7.760;2023-04-08T04:44:58;100532.09;;;8.56;56.24
30021;BME280;16861;52.294;7.760;2023-04-08T04:47:25;100533.03;;;8.55;56.57
30021;BME280;16861;52.294;7.760;2023-04-08T04:49:51;100542.66;;;8.55;56.54
30021;BME280;16861;52.294;7.760;2023-04-08T04:52:18;100542.66;;;8.55;56.45
30021;BME280;16861;52.294;7.760;2023-04-08T04:54:44;100554.94;;;8.54;56.59
30021;BME280;16861;52.294;7.760;2023-04-08T04:57:11;100554.88;;;8.56;56.90
30021;BME280;16861;52.294;7.760;2023-04-08T04:59:37;100550.41;;;8.58;56.64
30021;BME280;16861;52.294;7.760;2023-04-08T05:02:04;100551.25;;;8.60;56.74
30021;BME280;16861;52.294;7.760;2023-04-08T05:04:37;100552.03;;;8.62;56.93
30021;BME280;16861;52.294;7.760;2023-04-08T05:07:03;100568.63;;;8.63;57.05
30021;BME280;16861;52.294;7.760;2023-04-08T05:09:30;100559.78;;;8.65;57.18
30021;BME280;16861;52.294;7.760;2023-04-08T05:11:56;100555.34;;;8.67;56.99
30021;BME280;16861;52.294;7.760;2023-04-08T05:14:32;100561.41;;;8.69;56.99
30021;BME280;16861;52.294;7.760;2023-04-08T05:16:58;100562.19;;;8.71;56.86
30021;BME280;16861;52.294;7.760;2023-04-08T05:19:25;100566.50;;;8.72;56.95
30021;BME280;16861;52.294;7.760;2023-04-08T05:21:51;100560.38;;;8.73;56.68
30021;BME280;16861;52.294;7.760;2023-04-08T05:24:18;100555.13;;;8.73;56.72
30021;BME280;16861;52.294;7.760;2023-04-08T05:26:44;100563.00;;;8.73;56.71
30021;BME280;16861;52.294;7.760;2023-04-08T05:29:11;100565.63;;;8.73;56.84
30021;BME280;16861;52.294;7.760;2023-04-08T05:31:38;100559.47;;;8.75;57.09
30021;BME280;16861;52.294;7.760;2023-04-08T05:34:04;100566.41;;;8.76;57.20
30021;BME280;16861;52.294;7.760;2023-04-08T05:36:31;100555.84;;;8.77;57.22
30021;BME280;16861;52.294;7.760;2023-04-08T05:38:58;100565.38;;;8.80;57.19
30021;BME280;16861;52.294;7.760;2023-04-08T05:41:27;100564.47;;;8.81;57.33
30021;BME280;16861;52.294;7.760;2023-04-08T05:43:54;100562.59;;;8.84;57.24
30021;BME280;16861;52.294;7.760;2023-04-08T05:46:20;100570.44;;;8.86;57.25
30021;BME280;16861;52.294;7.760;2023-04-08T05:48:47;100575.56;;;8.89;57.27
30021;BME280;16861;52.294;7.760;2023-04-08T05:51:15;100581.66;;;8.90;57.57
30021;BME280;16861;52.294;7.760;2023-04-08T05:53:46;100590.34;;;8.92;57.72
30021;BME280;16861;52.294;7.760;2023-04-08T05:56:12;100590.22;;;8.95;57.47
30021;BME280;16861;52.294;7.760;2023-04-08T05:58:39;100597.25;;;8.94;57.41
30021;BME280;16861;52.294;7.760;2023-04-08T06:01:06;100596.41;;;8.94;57.14
30021;BME280;16861;52.294;7.760;2023-04-08T06:03:32;100592.94;;;8.92;56.94
30021;BME280;16861;52.294;7.760;2023-04-08T06:05:59;100595.72;;;8.89;57.13
30021;BME280;16861;52.294;7.760;2023-04-08T06:08:26;100595.81;;;8.85;56.92
30021;BME280;16861;52.294;7.760;2023-04-08T06:10:52;100601.16;;;8.82;57.41
30021;BME280;16861;52.294;7.760;2023-04-08T06:13:19;100602.16;;;8.80;57.55
30021;BME280;16861;52.294;7.760;2023-04-08T06:15:47;100594.38;;;8.77;57.57
30021;BME280;16861;52.294;7.760;2023-04-08T06:18:16;100600.47;;;8.77;57.89
30021;BME280;16861;52.294;7.760;2023-04-08T06:20:43;100601.34;;;8.78;58.19
30021;BME280;16861;52.294;7.760;2023-04-08T06:23:09;100597.81;;;8.79;58.07
30021;BME280;16861;52.294;7.760;2023-04-08T06:25:36;100602.00;;;8.84;58.53
30021;BME280;16861;52.294;7.760;2023-04-08T06:28:03;100604.47;;;8.88;58.43
30021;BME280;16861;52.294;7.760;2023-04-08T06:30:29;100614.81;;;8.92;58.55
30021;BME280;16861;52.294;7.760;2023-04-08T06:32:56;100613.81;;;8.96;58.34
30021;BME280;16861;52.294;7.760;2023-04-08T06:35:22;100617.16;;;9.00;58.38
30021;BME280;16861;52.294;7.760;2023-04-08T06:37:49;100623.19;;;9.04;58.11
30021;BME280;16861;52.294;7.760;2023-04-08T06:40:16;100623.06;;;9.07;58.17
30021;BME280;16861;52.294;7.760;2023-04-08T06:42:42;100622.16;;;9.08;58.11
30021;BME280;16861;52.294;7.760;2023-04-08T06:45:10;100636.09;;;9.10;58.06
30021;BME280;16861;52.294;7.760;2023-04-08T06:47:36;100636.09;;;9.10;58.43
30021;BME280;16861;52.294;7.760;2023-04-08T06:50:03;100644.75;;;9.12;58.43
30021;BME280;16861;52.294;7.760;2023-04-08T06:52:30;100642.94;;;9.14;58.31
30021;BME280;16861;52.294;7.760;2023-04-08T06:54:56;100646.44;;;9.15;58.31
30021;BME280;16861;52.294;7.760;2023-04-08T06:57:23;100648.19;;;9.14;58.26
30021;BME280;16861;52.294;7.760;2023-04-08T06:59:52;100646.34;;;9.16;58.32
30021;BME280;16861;52.294;7.760;2023-04-08T07:02:18;100643.72;;;9.16;58.32
30021;BME280;16861;52.294;7.760;2023-04-08T07:04:45;100655.03;;;9.18;58.31
30021;BME280;16861;52.294;7.760;2023-04-08T07:07:12;100651.50;;;9.19;58.60
30021;BME280;16861;52.294;7.760;2023-04-08T07:09:39;100646.13;;;9.22;58.75
30021;BME280;16861;52.294;7.760;2023-04-08T07:12:08;100647.75;;;9.27;58.63
30021;BME280;16861;52.294;7.760;2023-04-08T07:14:35;100651.09;;;9.30;58.81
30021;BME280;16861;52.294;7.760;2023-04-08T07:17:01;100648.38;;;9.33;58.32
30021;BME280;16861;52.294;7.760;2023-04-08T07:19:28;100659.59;;;9.37;58.57
30021;BME280;16861;52.294;7.760;2023-04-08T07:21:54;100661.25;;;9.39;58.58
30021;BME280;16861;52.294;7.760;2023-04-08T07:24:21;100662.03;;;9.43;58.57
30021;BME280;16861;52.294;7.760;2023-04-08T07:26:48;100665.38;;;9.47;58.40
30021;BME280;16861;52.294;7.760;2023-04-08T07:29:14;100656.53;;;9.49;58.29
30021;BME280;16861;52.294;7.760;2023-04-08T07:31:42;100665.22;;;9.51;58.37
30021;BME280;16861;52.294;7.760;2023-04-08T07:34:09;100672.13;;;9.54;58.40
30021;BME280;16861;52.294;7.760;2023-04-08T07:36:36;100664.16;;;9.56;58.60
30021;BME280;16861;52.294;7.760;2023-04-08T07:39:03;100665.84;;;9.58;58.91
30021;BME280;16861;52.294;7.760;2023-04-08T07:41:30;100670.91;;;9.63;58.78
30021;BME280;16861;52.294;7.760;2023-04-08T07:43:56;100673.38;;;9.68;58.70
30021;BME280;16861;52.294;7.760;2023-04-08T07:46:23;100682.81;;;9.73;58.83
30021;BME280;16861;52.294;7.760;2023-04-08T07:48:49;100675.59;;;9.78;58.74
30021;BME280;16861;52.294;7.760;2023-04-08T07:51:17;100673.63;;;9.84;58.66
30021;BME280;16861;52.294;7.760;2023-04-08T07:53:46;100676.06;;;9.88;58.76
30021;BME280;16861;52.294;7.760;2023-04-08T07:56:14;100682.06;;;9.92;58.55
30021;BME280;16861;52.294;7.760;2023-04-08T07:58:41;100681.97;;;9.95;58.46
30021;BME280;16861;52.294;7.760;2023-04-08T08:03:41;100681.72;;;10.01;58.36
30021;BME280;16861;52.294;7.760;2023-04-08T08:06:10;100686.84;;;10.04;58.79
30021;BME280;16861;52.294;7.760;2023-04-08T08:08:37;100686.66;;;10.09;58.72
30021;BME280;16861;52.294;7.760;2023-04-08T08:11:03;100693.44;;;10.15;58.53
30021;BME280;16861;52.294;7.760;2023-04-08T08:13:30;100695.91;;;10.20;58.51
30021;BME280;16861;52.294;7.760;2023-04-08T08:15:57;100697.50;;;10.24;58.61
30021;BME280;16861;52.294;7.760;2023-04-08T08:18:23;100691.19;;;10.28;58.65
30021;BME280;16861;52.294;7.760;2023-04-08T08:20:49;100698.88;;;10.33;58.38
30021;BME280;16861;52.294;7.760;2023-04-08T08:23:16;100704.97;;;10.35;58.32
30021;BME280;16861;52.294;7.760;2023-04-08T08:25:43;100698.72;;;10.37;58.15
30021;BME280;16861;52.294;7.760;2023-04-08T08:28:09;100702.13;;;10.39;58.21
30021;BME280;16861;52.294;7.760;2023-04-08T08:30:36;100702.06;;;10.41;58.14
30021;BME280;16861;52.294;7.760;2023-04-08T08:33:03;100707.25;;;10.42;58.12
30021;BME280;16861;52.294;7.760;2023-04-08T08:35:30;100705.44;;;10.45;58.28
30021;BME280;16861;52.294;7.760;2023-04-08T08:37:56;100702.69;;;10.48;58.29
30021;BME280;16861;52.294;7.760;2023-04-08T08:40:23;100709.72;;;10.47;57.91
30021;BME280;16861;52.294;7.760;2023-04-08T08:42:51;100714.09;;;10.48;57.80
30021;BME280;16861;52.294;7.760;2023-04-08T08:45:20;100718.50;;;10.48;58.21
30021;BME280;16861;52.294;7.760;2023-04-08T08:47:47;100716.72;;;10.48;58.03
30021;BME280;16861;52.294;7.760;2023-04-08T08:50:16;100720.19;;;10.49;58.07
30021;BME280;16861;52.294;7.760;2023-04-08T08:52:50;100727.38;;;10.45;58.29
30021;BME280;16861;52.294;7.760;2023-04-08T08:55:20;100722.00;;;10.48;58.38
30021;BME280;16861;52.294;7.760;2023-04-08T08:58:07;100729.81;;;10.50;58.21
30021;BME280;16861;52.294;7.760;2023-04-08T09:00:38;100728.03;;;10.50;58.13
30021;BME280;16861;52.294;7.760;2023-04-08T09:03:25;100739.50;;;10.49;58.88
30021;BME280;16861;52.294;7.760;2023-04-08T09:06:00;100739.22;;;10.55;58.48
30021;BME280;16861;52.294;7.760;2023-04-08T09:08:29;100733.84;;;10.59;58.38
30021;BME280;16861;52.294;7.760;2023-04-08T09:11:15;100743.50;;;10.58;58.54
30021;BME280;16861;52.294;7.760;2023-04-08T09:13:43;100738.88;;;10.65;58.29
30021;BME280;16861;52.294;7.760;2023-04-08T09:16:12;100743.22;;;10.66;58.18
30021;BME280;16861;52.294;7.760;2023-04-08T09:18:40;100738.78;;;10.66;58.09
30021;BME280;16861;52.294;7.760;2023-04-08T09:21:10;100742.22;;;10.68;58.16
30021;BME280;16861;52.294;7.760;2023-04-08T09:28:38;100740.72;;;10.84;59.13
30021;BME280;16861;52.294;7.760;2023-04-08T09:31:26;100746.66;;;10.89;59.06
30021;BME280;16861;52.294;7.760;2023-04-08T09:33:57;100745.25;;;11.01;58.89
30021;BME280;16861;52.294;7.760;2023-04-08T09:36:25;100744.03;;;11.10;58.75
30021;BME280;16861;52.294;7.760;2023-04-08T09:38:53;100748.03;;;11.18;58.85
30021;BME280;16861;52.294;7.760;2023-04-08T09:41:21;100737.16;;;11.26;58.99
30021;BME280;16861;52.294;7.760;2023-04-08T09:43:55;100737.81;;;11.31;58.81
30021;BME280;16861;52.294;7.760;2023-04-08T09:46:26;100737.41;;;11.41;58.50
30021;BME280;16861;52.294;7.760;2023-04-08T09:49:10;100729.19;;;11.47;58.78
30021;BME280;16861;52.294;7.760;2023-04-08T09:51:52;100744.59;;;11.56;58.48
30021;BME280;16861;52.294;7.760;2023-04-08T09:54:23;100749.47;;;11.66;58.21
30021;BME280;16861;52.294;7.760;2023-04-08T09:57:08;100737.94;;;11.68;58.28
30021;BME280;16861;52.294;7.760;2023-04-08T09:59:37;100742.91;;;11.75;57.88
30021;BME280;16861;52.294;7.760;2023-04-08T10:02:06;100746.25;;;11.78;57.78
30021;BME280;16861;52.294;7.760;2023-04-08T10:04:38;100749.69;;;11.80;57.78
30021;BME280;16861;52.294;7.760;2023-04-08T10:07:07;100745.19;;;11.82;57.76
30021;BME280;16861;52.294;7.760;2023-04-08T10:09:34;100741.56;;;11.85;57.68
30021;BME280;16861;52.294;7.760;2023-04-08T10:12:03;100740.56;;;11.88;57.92
30021;BME280;16861;52.294;7.760;2023-04-08T10:14:30;100746.56;;;11.91;58.08
30021;BME280;16861;52.294;7.760;2023-04-08T10:17:23;100749.19;;;11.91;58.15
30021;BME280;16861;52.294;7.760;2023-04-08T10:19:49;100749.63;;;12.01;57.92
30021;BME280;16861;52.294;7.760;2023-04-08T10:22:45;100744.34;;;12.01;58.07
30021;BME280;16861;52.294;7.760;2023-04-08T10:27:43;100745.44;;;12.16;57.88
30021;BME280;16861;52.294;7.760;2023-04-08T10:30:43;100754.13;;;12.18;57.73
30021;BME280;16861;52.294;7.760;2023-04-08T10:35:56;100750.13;;;12.29;57.69
30021;BME280;16861;52.294;7.760;2023-04-08T10:38:24;100756.09;;;12.32;57.43
30021;BME280;16861;52.294;7.760;2023-04-08T10:40:53;100755.16;;;12.33;57.55
30021;BME280;16861;52.294;7.760;2023-04-08T10:43:19;100752.38;;;12.36;57.55
30021;BME280;16861;52.294;7.760;2023-04-08T10:45:46;100748.81;;;12.37;57.62
30021;BME280;16861;52.294;7.760;2023-04-08T10:48:21;100753.16;;;12.38;57.55
30021;BME280;16861;52.294;7.760;2023-04-08T10:50:54;100754.03;;;12.39;57.34
30021;BME280;16861;52.294;7.760;2023-04-08T10:53:28;100755.78;;;12.38;57.25
30021;BME280;16861;52.294;7.760;2023-04-08T10:58:33;100757.53;;;12.40;57.18
30021;BME280;16861;52.294;7.760;2023-04-08T11:01:06;100760.31;;;12.36;57.27
30021;BME280;16861;52.294;7.760;2023-04-08T11:03:34;100768.94;;;12.40;57.45
30021;BME280;16861;52.294;7.760;2023-04-08T11:06:03;100776.84;;;12.40;57.33
30021;BME280;16861;52.294;7.760;2023-04-08T11:08:32;100773.28;;;12.41;57.14
30021;BME280;16861;52.294;7.760;2023-04-08T11:11:00;100769.72;;;12.42;57.19
30021;BME280;16861;52.294;7.760;2023-04-08T11:13:27;100775.78;;;12.44;57.17
30021;BME280;16861;52.294;7.760;2023-04-08T11:15:58;100775.84;;;12.43;57.25
30021;BME280;16861;52.294;7.760;2023-04-08T11:18:25;100771.28;;;12.46;57.37
30021;BME280;16861;52.294;7.760;2023-04-08T11:20:53;100772.13;;;12.47;57.12
30021;BME280;16861;52.294;7.760;2023-04-08T11:23:19;100770.34;;;12.47;57.19
30021;BME280;16861;52.294;7.760;2023-04-08T11:25:48;100775.69;;;12.46;57.04
30021;BME280;16861;52.294;7.760;2023-04-08T11:28:16;100770.34;;;12.47;57.06
30021;BME280;16861;52.294;7.760;2023-04-08T11:30:43;100769.47;;;12.47;57.21
30021;BME280;16861;52.294;7.760;2023-04-08T11:33:10;100769.41;;;12.48;57.32
30021;BME280;16861;52.294;7.760;2023-04-08T11:35:42;100770.34;;;12.47;57.05
30021;BME280;16861;52.294;7.760;2023-04-08T11:38:10;100768.41;;;12.51;57.19
30021;BME280;16861;52.294;7.760;2023-04-08T11:40:37;100774.56;;;12.51;57.17
30021;BME280;16861;52.294;7.760;2023-04-08T11:43:11;100764.13;;;12.48;57.12
30021;BME280;16861;52.294;7.760;2023-04-08T11:45:38;100765.75;;;12.51;57.29
30021;BME280;16861;52.294;7.760;2023-04-08T11:48:13;100772.91;;;12.49;57.37
30021;BME280;16861;52.294;7.760;2023-04-08T11:50:41;100770.22;;;12.50;57.51
30021;BME280;16861;52.294;7.760;2023-04-08T11:55:45;100767.19;;;12.58;57.89
30021;BME280;16861;52.294;7.760;2023-04-08T11:58:11;100772.16;;;12.64;57.61
30021;BME280;16861;52.294;7.760;2023-04-08T12:00:38;100771.00;;;12.70;57.90
30021;BME280;16861;52.294;7.760;2023-04-08T12:03:05;100772.47;;;12.76;57.79
30021;BME280;16861;52.294;7.760;2023-04-08T12:05:32;100767.81;;;12.81;57.51
30021;BME280;16861;52.294;7.760;2023-04-08T12:07:59;100764.84;;;12.87;57.59
30021;BME280;16861;52.294;7.760;2023-04-08T12:10:25;100767.28;;;12.92;57.69
30021;BME280;16861;52.294;7.760;2023-04-08T12:12:52;100771.41;;;12.98;57.69
30021;BME280;16861;52.294;7.760;2023-04-08T12:15:18;100760.56;;;13.02;57.67
30021;BME280;16861;52.294;7.760;2023-04-08T12:17:45;100764.69;;;13.08;57.64
30021;BME280;16861;52.294;7.760;2023-04-08T12:20:12;100767.03;;;13.14;57.78
30021;BME280;16861;52.294;7.760;2023-04-08T12:22:39;100779.94;;;13.21;57.38
30021;BME280;16861;52.294;7.760;2023-04-08T12:25:05;100777.81;;;13.27;57.22
30021;BME280;16861;52.294;7.760;2023-04-08T12:27:32;100778.34;;;13.34;57.31
30021;BME280;16861;52.294;7.760;2023-04-08T12:29:59;100770.13;;;13.40;57.40
30021;BME280;16861;52.294;7.760;2023-04-08T12:32:26;100775.91;;;13.49;57.31
30021;BME280;16861;52.294;7.760;2023-04-08T12:34:53;100770.13;;;13.58;57.46
30021;BME280;16861;52.294;7.760;2023-04-08T12:37:19;100777.69;;;13.64;56.97
30021;BME280;16861;52.294;7.760;2023-04-08T12:39:46;100769.53;;;13.69;56.75
30021;BME280;16861;52.294;7.760;2023-04-08T12:42:13;100777.13;;;13.75;56.99
30021;BME280;16861;52.294;7.760;2023-04-08T12:44:39;100776.03;;;13.79;56.83
30021;BME280;16861;52.294;7.760;2023-04-08T12:47:06;100771.31;;;13.85;56.77
30021;BME280;16861;52.294;7.760;2023-04-08T12:49:33;100764.19;;;13.87;56.34
30021;BME280;16861;52.294;7.760;2023-04-08T12:52:14;100769.19;;;13.91;56.41
30021;BME280;16861;52.294;7.760;2023-04-08T12:54:40;100769.03;;;13.94;56.70
30021;BME280;16861;52.294;7.760;2023-04-08T12:57:07;100765.38;;;13.97;56.76
30021;BME280;16861;52.294;7.760;2023-04-08T12:59:34;100765.06;;;14.03;56.65
30021;BME280;16861;52.294;7.760;2023-04-08T13:02:00;100772.72;;;14.08;56.42
30021;BME280;16861;52.294;7.760;2023-04-08T13:04:27;100772.41;;;14.14;56.24
30021;BME280;16861;52.294;7.760;2023-04-08T13:06:53;100770.50;;;14.16;55.96
30021;BME280;16861;52.294;7.760;2023-04-08T13:09:20;100767.84;;;14.16;55.76
30021;BME280;16861;52.294;7.760;2023-04-08T13:11:47;100766.91;;;14.17;55.88
30021;BME280;16861;52.294;7.760;2023-04-08T13:14:14;100767.94;;;14.15;55.69
30021;BME280;16861;52.294;7.760;2023-04-08T13:16:40;100769.75;;;14.14;55.89
30021;BME280;16861;52.294;7.760;2023-04-08T13:19:07;100770.66;;;14.13;55.72
30021;BME280;16861;52.294;7.760;2023-04-08T13:21:33;100771.69;;;14.11;55.43
30021;BME280;16861;52.294;7.760;2023-04-08T13:24:00;100763.06;;;14.07;55.67
30021;BME280;16861;52.294;7.760;2023-04-08T13:26:26;100769.41;;;14.04;55.58